sensor_id;sensor_type;location;lat;lon;timestamp;temperature;humidity
4811;DHT22;2419;51.276;6.472;2022-11-30T00:00:06;6.80;99.90
4811;DHT22;2419;51.276;6.472;2022-11-30T00:02:37;6.80;99.90
4811;DHT22;2419;51.276;6.472;2022-11-30T00:05:06;6.80;99.90
4811;DHT22;2419;51.276;6.472;2022-11-30T00:07:36;6.80;99.90
4811;DHT22;2419;51.276;6.472;2022-11-30T00:10:06;6.80;99.90
4811;DHT22;2419;51.276;6.472;2022-11-30T00:12:34;6.80;99.90
4811;DHT22;2419;51.276;6.472;2022-11-30T00:15:03;6.80;99.90
4811;DHT22;2419;51.276;6.472;2022-11-30T00:17:31;6.90;99.90
4811;DHT22;2419;51.276;6.472;2022-11-30T00:19:59;6.90;99.90
4811;DHT22;2419;51.276;6.472;2022-11-30T00:22:27;6.80;99.90
4811;DHT22;2419;51.276;6.472;2022-11-30T00:24:56;6.90;99.90
4811;DHT22;2419;51.276;6.472;2022-11-30T00:27:26;6.90;99.90
4811;DHT22;2419;51.276;6.472;2022-11-30T00:29:55;6.90;99.90
4811;DHT22;2419;51.276;6.472;2022-11-30T00:32:23;6.90;99.90
4811;DHT22;2419;51.276;6.472;2022-11-30T00:34:52;6.90;99.90
4811;DHT22;2419;51.276;6.472;2022-11-30T00:37:20;6.90;99.90
4811;DHT22;2419;51.276;6.472;2022-11-30T00:39:48;7.00;99.90
4811;DHT22;2419;51.276;6.472;2022-11-30T00:42:18;6.90;99.90
4811;DHT22;2419;51.276;6.472;2022-11-30T00:44:46;6.90;99.90
4811;DHT22;2419;51.276;6.472;2022-11-30T00:47:16;6.90;99.90
4811;DHT22;2419;51.276;6.472;2022-11-30T00:49:44;6.90;99.90
4811;DHT22;2419;51.276;6.472;2022-11-30T00:52:12;7.00;99.90
4811;DHT22;2419;51.276;6.472;2022-11-30T00:54:40;6.90;99.90
4811;DHT22;2419;51.276;6.472;2022-11-30T00:57:09;7.00;99.90
4811;DHT22;2419;51.276;6.472;2022-11-30T00:59:39;6.90;99.90
4811;DHT22;2419;51.276;6.472;2022-11-30T01:02:07;7.00;99.90
4811;DHT22;2419;51.276;6.472;2022-11-30T01:04:35;7.00;99.90
4811;DHT22;2419;51.276;6.472;2022-11-30T01:07:03;7.00;99.90
4811;DHT22;2419;51.276;6.472;2022-11-30T01:09:31;7.00;99.90
4811;DHT22;2419;51.276;6.472;2022-11-30T01:11:59;7.00;99.90
4811;DHT22;2419;51.276;6.472;2022-11-30T01:14:27;7.00;99.90
4811;DHT22;2419;51.276;6.472;2022-11-30T01:16:57;7.00;99.90
4811;DHT22;2419;51.276;6.472;2022-11-30T01:19:25;7.00;99.90
4811;DHT22;2419;51.276;6.472;2022-11-30T01:21:53;7.00;99.90
4811;DHT22;2419;51.276;6.472;2022-11-30T01:24:21;7.00;99.90
4811;DHT22;2419;51.276;6.472;2022-11-30T01:26:49;7.10;99.90
4811;DHT22;2419;51.276;6.472;2022-11-30T01:29:17;7.10;99.90
4811;DHT22;2419;51.276;6.472;2022-11-30T01:31:45;7.10;99.90
4811;DHT22;2419;51.276;6.472;2022-11-30T01:34:15;7.10;99.90
4811;DHT22;2419;51.276;6.472;2022-11-30T01:36:43;7.10;99.90
4811;DHT22;2419;51.276;6.472;2022-11-30T01:39:11;7.20;99.90
4811;DHT22;2419;51.276;6.472;2022-11-30T01:41:39;7.10;99.90
4811;DHT22;2419;51.276;6.472;2022-11-30T01:44:45;7.20;99.90
4811;DHT22;2419;51.276;6.472;2022-11-30T01:47:14;7.20;99.90
4811;DHT22;2419;51.276;6.472;2022-11-30T01:49:47;7.20;99.90
4811;DHT22;2419;51.276;6.472;2022-11-30T01:52:18;7.20;99.90
4811;DHT22;2419;51.276;6.472;2022-11-30T01:54:50;7.20;99.90
4811;DHT22;2419;51.276;6.472;2022-11-30T01:57:23;7.20;99.90
4811;DHT22;2419;51.276;6.472;2022-11-30T01:59:54;7.20;99.90
4811;DHT22;2419;51.276;6.472;2022-11-30T02:02:29;7.20;99.90
4811;DHT22;2419;51.276;6.472;2022-11-30T02:05:00;7.20;99.90
4811;DHT22;2419;51.276;6.472;2022-11-30T02:07:29;7.30;99.90
4811;DHT22;2419;51.276;6.472;2022-11-30T02:09:57;7.40;99.90
4811;DHT22;2419;51.276;6.472;2022-11-30T02:12:31;7.30;99.90
4811;DHT22;2419;51.276;6.472;2022-11-30T02:15:06;7.30;99.90
4811;DHT22;2419;51.276;6.472;2022-11-30T02:17:43;7.40;99.90
4811;DHT22;2419;51.276;6.472;2022-11-30T02:20:49;7.40;99.90
4811;DHT22;2419;51.276;6.472;2022-11-30T02:23:33;7.40;99.90
4811;DHT22;2419;51.276;6.472;2022-11-30T02:26:22;7.40;99.90
4811;DHT22;2419;51.276;6.472;2022-11-30T02:29:05;7.50;99.90
4811;DHT22;2419;51.276;6.472;2022-11-30T02:31:39;7.50;99.90
4811;DHT22;2419;51.276;6.472;2022-11-30T02:34:09;7.50;99.90
4811;DHT22;2419;51.276;6.472;2022-11-30T02:36:39;7.50;99.90
4811;DHT22;2419;51.276;6.472;2022-11-30T02:39:09;7.50;99.90
4811;DHT22;2419;51.276;6.472;2022-11-30T02:41:39;7.50;99.90
4811;DHT22;2419;51.276;6.472;2022-11-30T02:44:10;7.50;99.90
4811;DHT22;2419;51.276;6.472;2022-11-30T02:46:52;7.50;99.90
4811;DHT22;2419;51.276;6.472;2022-11-30T02:49:28;7.40;99.90
4811;DHT22;2419;51.276;6.472;2022-11-30T02:51:57;7.30;99.90
4811;DHT22;2419;51.276;6.472;2022-11-30T02:54:28;7.30;99.90
4811;DHT22;2419;51.276;6.472;2022-11-30T02:56:56;7.20;99.90
4811;DHT22;2419;51.276;6.472;2022-11-30T02:59:26;7.10;99.90
4811;DHT22;2419;51.276;6.472;2022-11-30T03:01:54;7.10;99.90
4811;DHT22;2419;51.276;6.472;2022-11-30T03:04:23;7.10;99.90
4811;DHT22;2419;51.276;6.472;2022-11-30T03:06:51;7.10;99.90
4811;DHT22;2419;51.276;6.472;2022-11-30T03:09:19;7.10;99.90
4811;DHT22;2419;51.276;6.472;2022-11-30T03:11:47;7.00;99.90
4811;DHT22;2419;51.276;6.472;2022-11-30T03:14:15;7.10;99.90
4811;DHT22;2419;51.276;6.472;2022-11-30T03:16:44;7.00;99.90
4811;DHT22;2419;51.276;6.472;2022-11-30T03:19:12;7.00;99.90
4811;DHT22;2419;51.276;6.472;2022-11-30T03:21:41;7.00;99.90
4811;DHT22;2419;51.276;6.472;2022-11-30T03:24:09;7.00;99.90
4811;DHT22;2419;51.276;6.472;2022-11-30T03:26:37;7.00;99.90
4811;DHT22;2419;51.276;6.472;2022-11-30T03:29:05;7.00;99.90
4811;DHT22;2419;51.276;6.472;2022-11-30T03:31:33;7.00;99.90
4811;DHT22;2419;51.276;6.472;2022-11-30T03:34:02;7.00;99.90
4811;DHT22;2419;51.276;6.472;2022-11-30T03:36:30;7.00;99.90
4811;DHT22;2419;51.276;6.472;2022-11-30T03:38:59;7.00;99.90
4811;DHT22;2419;51.276;6.472;2022-11-30T03:41:27;7.10;99.90
4811;DHT22;2419;51.276;6.472;2022-11-30T03:43:55;7.10;99.90
4811;DHT22;2419;51.276;6.472;2022-11-30T03:46:23;7.00;99.90
4811;DHT22;2419;51.276;6.472;2022-11-30T03:48:53;7.00;99.90
4811;DHT22;2419;51.276;6.472;2022-11-30T03:51:22;7.00;99.90
4811;DHT22;2419;51.276;6.472;2022-11-30T03:53:50;7.10;99.90
4811;DHT22;2419;51.276;6.472;2022-11-30T03:56:18;7.00;99.90
4811;DHT22;2419;51.276;6.472;2022-11-30T03:58:46;7.00;99.90
4811;DHT22;2419;51.276;6.472;2022-11-30T04:01:17;7.00;99.90
4811;DHT22;2419;51.276;6.472;2022-11-30T04:03:48;7.00;99.90
4811;DHT22;2419;51.276;6.472;2022-11-30T04:06:17;7.00;99.90
4811;DHT22;2419;51.276;6.472;2022-11-30T04:08:47;7.00;99.90
4811;DHT22;2419;51.276;6.472;2022-11-30T04:11:15;6.90;99.90
4811;DHT22;2419;51.276;6.472;2022-11-30T04:13:43;6.90;99.90
4811;DHT22;2419;51.276;6.472;2022-11-30T04:16:14;6.90;99.90
4811;DHT22;2419;51.276;6.472;2022-11-30T04:18:43;6.80;99.90
4811;DHT22;2419;51.276;6.472;2022-11-30T04:21:11;6.80;99.90
4811;DHT22;2419;51.276;6.472;2022-11-30T04:23:39;6.80;99.90
4811;DHT22;2419;51.276;6.472;2022-11-30T04:26:11;6.80;99.90
4811;DHT22;2419;51.276;6.472;2022-11-30T04:28:40;6.80;99.90
4811;DHT22;2419;51.276;6.472;2022-11-30T04:31:08;6.70;99.90
4811;DHT22;2419;51.276;6.472;2022-11-30T04:33:36;6.70;99.90
4811;DHT22;2419;51.276;6.472;2022-11-30T04:36:06;6.70;99.90
4811;DHT22;2419;51.276;6.472;2022-11-30T04:38:35;6.60;99.90
4811;DHT22;2419;51.276;6.472;2022-11-30T04:41:06;6.70;99.90
4811;DHT22;2419;51.276;6.472;2022-11-30T04:43:36;6.70;99.90
4811;DHT22;2419;51.276;6.472;2022-11-30T04:46:04;6.60;99.90
4811;DHT22;2419;51.276;6.472;2022-11-30T04:48:33;6.60;99.90
4811;DHT22;2419;51.276;6.472;2022-11-30T04:51:01;6.70;99.90
4811;DHT22;2419;51.276;6.472;2022-11-30T04:53:30;6.60;99.90
4811;DHT22;2419;51.276;6.472;2022-11-30T04:55:58;6.60;99.90
4811;DHT22;2419;51.276;6.472;2022-11-30T04:58:26;6.50;99.90
4811;DHT22;2419;51.276;6.472;2022-11-30T05:00:55;6.50;99.90
4811;DHT22;2419;51.276;6.472;2022-11-30T05:03:23;6.40;99.90
4811;DHT22;2419;51.276;6.472;2022-11-30T05:05:51;6.40;99.90
4811;DHT22;2419;51.276;6.472;2022-11-30T05:08:20;6.40;99.90
4811;DHT22;2419;51.276;6.472;2022-11-30T05:10:51;6.40;99.90
4811;DHT22;2419;51.276;6.472;2022-11-30T05:13:19;6.40;99.90
4811;DHT22;2419;51.276;6.472;2022-11-30T05:15:48;6.50;99.90
4811;DHT22;2419;51.276;6.472;2022-11-30T05:18:20;6.50;99.90
4811;DHT22;2419;51.276;6.472;2022-11-30T05:20:49;6.50;99.90
4811;DHT22;2419;51.276;6.472;2022-11-30T05:23:18;6.50;99.90
4811;DHT22;2419;51.276;6.472;2022-11-30T05:25:46;6.60;99.90
4811;DHT22;2419;51.276;6.472;2022-11-30T05:28:15;6.60;99.90
4811;DHT22;2419;51.276;6.472;2022-11-30T05:30:43;6.70;99.90
4811;DHT22;2419;51.276;6.472;2022-11-30T05:33:11;6.60;99.90
4811;DHT22;2419;51.276;6.472;2022-11-30T05:35:41;6.60;99.90
4811;DHT22;2419;51.276;6.472;2022-11-30T05:38:09;6.50;99.90
4811;DHT22;2419;51.276;6.472;2022-11-30T05:40:37;6.50;99.90
4811;DHT22;2419;51.276;6.472;2022-11-30T05:43:06;6.40;99.90
4811;DHT22;2419;51.276;6.472;2022-11-30T05:45:34;6.30;99.90
4811;DHT22;2419;51.276;6.472;2022-11-30T05:48:02;6.30;99.90
4811;DHT22;2419;51.276;6.472;2022-11-30T05:50:30;6.30;99.90
4811;DHT22;2419;51.276;6.472;2022-11-30T05:53:00;6.10;99.90
4811;DHT22;2419;51.276;6.472;2022-11-30T05:55:28;6.10;99.90
4811;DHT22;2419;51.276;6.472;2022-11-30T05:57:58;6.00;99.90
4811;DHT22;2419;51.276;6.472;2022-11-30T06:00:26;6.00;99.90
4811;DHT22;2419;51.276;6.472;2022-11-30T06:02:54;6.00;99.90
4811;DHT22;2419;51.276;6.472;2022-11-30T06:05:24;5.90;99.90
4811;DHT22;2419;51.276;6.472;2022-11-30T06:07:52;5.70;99.90
4811;DHT22;2419;51.276;6.472;2022-11-30T06:10:21;5.70;99.90
4811;DHT22;2419;51.276;6.472;2022-11-30T06:12:52;5.70;99.90
4811;DHT22;2419;51.276;6.472;2022-11-30T06:15:20;5.50;99.90
4811;DHT22;2419;51.276;6.472;2022-11-30T06:17:48;5.40;99.90
4811;DHT22;2419;51.276;6.472;2022-11-30T06:20:17;5.40;99.90
4811;DHT22;2419;51.276;6.472;2022-11-30T06:22:45;5.20;99.90
4811;DHT22;2419;51.276;6.472;2022-11-30T06:25:13;5.10;99.90
4811;DHT22;2419;51.276;6.472;2022-11-30T06:27:43;5.10;99.90
4811;DHT22;2419;51.276;6.472;2022-11-30T06:30:12;5.00;99.90
4811;DHT22;2419;51.276;6.472;2022-11-30T06:32:43;4.90;99.90
4811;DHT22;2419;51.276;6.472;2022-11-30T06:35:11;5.00;99.90
4811;DHT22;2419;51.276;6.472;2022-11-30T06:37:40;4.80;99.90
4811;DHT22;2419;51.276;6.472;2022-11-30T06:40:10;4.80;99.90
4811;DHT22;2419;51.276;6.472;2022-11-30T06:42:39;4.70;99.90
4811;DHT22;2419;51.276;6.472;2022-11-30T06:45:09;4.70;99.90
4811;DHT22;2419;51.276;6.472;2022-11-30T06:47:37;4.60;99.90
4811;DHT22;2419;51.276;6.472;2022-11-30T06:50:06;4.60;99.90
4811;DHT22;2419;51.276;6.472;2022-11-30T06:52:35;4.60;99.90
4811;DHT22;2419;51.276;6.472;2022-11-30T06:55:04;4.50;99.90
4811;DHT22;2419;51.276;6.472;2022-11-30T06:57:32;4.50;99.90
4811;DHT22;2419;51.276;6.472;2022-11-30T07:00:00;4.50;99.90
4811;DHT22;2419;51.276;6.472;2022-11-30T07:02:30;4.50;99.90
4811;DHT22;2419;51.276;6.472;2022-11-30T07:04:58;4.50;99.90
4811;DHT22;2419;51.276;6.472;2022-11-30T07:07:27;4.50;99.90
4811;DHT22;2419;51.276;6.472;2022-11-30T07:09:56;4.50;99.90
4811;DHT22;2419;51.276;6.472;2022-11-30T07:12:24;4.40;99.90
4811;DHT22;2419;51.276;6.472;2022-11-30T07:14:52;4.40;99.90
4811;DHT22;2419;51.276;6.472;2022-11-30T07:17:22;4.40;99.90
4811;DHT22;2419;51.276;6.472;2022-11-30T07:19:51;4.30;99.90
4811;DHT22;2419;51.276;6.472;2022-11-30T07:22:19;4.40;99.90
4811;DHT22;2419;51.276;6.472;2022-11-30T07:24:47;4.40;99.90
4811;DHT22;2419;51.276;6.472;2022-11-30T07:27:33;4.40;99.90
4811;DHT22;2419;51.276;6.472;2022-11-30T07:30:01;4.30;99.90
4811;DHT22;2419;51.276;6.472;2022-11-30T07:32:29;4.40;99.90
4811;DHT22;2419;51.276;6.472;2022-11-30T07:34:58;4.50;99.90
4811;DHT22;2419;51.276;6.472;2022-11-30T07:37:26;4.50;99.90
4811;DHT22;2419;51.276;6.472;2022-11-30T07:39:55;4.60;99.90
4811;DHT22;2419;51.276;6.472;2022-11-30T07:42:23;4.60;99.90
4811;DHT22;2419;51.276;6.472;2022-11-30T07:44:52;4.70;99.90
4811;DHT22;2419;51.276;6.472;2022-11-30T07:47:25;4.80;99.90
4811;DHT22;2419;51.276;6.472;2022-11-30T07:49:52;4.90;99.90
4811;DHT22;2419;51.276;6.472;2022-11-30T07:52:22;5.00;99.90
4811;DHT22;2419;51.276;6.472;2022-11-30T07:54:50;5.10;99.90
4811;DHT22;2419;51.276;6.472;2022-11-30T07:57:18;5.20;99.90
4811;DHT22;2419;51.276;6.472;2022-11-30T07:59:46;5.30;99.90
4811;DHT22;2419;51.276;6.472;2022-11-30T08:02:14;5.40;99.90
4811;DHT22;2419;51.276;6.472;2022-11-30T08:04:44;5.50;99.90
4811;DHT22;2419;51.276;6.472;2022-11-30T08:07:12;5.60;99.90
4811;DHT22;2419;51.276;6.472;2022-11-30T08:09:42;5.60;99.90
4811;DHT22;2419;51.276;6.472;2022-11-30T08:12:11;5.70;99.90
4811;DHT22;2419;51.276;6.472;2022-11-30T08:14:39;5.80;99.90
4811;DHT22;2419;51.276;6.472;2022-11-30T08:17:27;5.80;99.90
4811;DHT22;2419;51.276;6.472;2022-11-30T08:19:55;5.90;99.90
4811;DHT22;2419;51.276;6.472;2022-11-30T08:22:23;5.90;99.90
4811;DHT22;2419;51.276;6.472;2022-11-30T08:24:52;5.90;99.90
4811;DHT22;2419;51.276;6.472;2022-11-30T08:27:20;6.00;99.90
4811;DHT22;2419;51.276;6.472;2022-11-30T08:29:48;5.90;99.90
4811;DHT22;2419;51.276;6.472;2022-11-30T08:32:17;6.00;99.90
4811;DHT22;2419;51.276;6.472;2022-11-30T08:34:45;6.00;99.90
4811;DHT22;2419;51.276;6.472;2022-11-30T08:37:14;6.00;99.90
4811;DHT22;2419;51.276;6.472;2022-11-30T08:39:42;5.90;99.90
4811;DHT22;2419;51.276;6.472;2022-11-30T08:42:11;6.00;99.90
4811;DHT22;2419;51.276;6.472;2022-11-30T08:44:39;6.00;99.90
4811;DHT22;2419;51.276;6.472;2022-11-30T08:47:07;6.00;99.90
4811;DHT22;2419;51.276;6.472;2022-11-30T08:49:35;6.00;99.90
4811;DHT22;2419;51.276;6.472;2022-11-30T08:52:04;6.00;99.90
4811;DHT22;2419;51.276;6.472;2022-11-30T08:54:47;5.90;99.90
4811;DHT22;2419;51.276;6.472;2022-11-30T08:57:19;5.90;99.90
4811;DHT22;2419;51.276;6.472;2022-11-30T08:59:48;5.90;99.90
4811;DHT22;2419;51.276;6.472;2022-11-30T09:02:18;6.00;99.90
4811;DHT22;2419;51.276;6.472;2022-11-30T09:04:47;6.00;99.90
4811;DHT22;2419;51.276;6.472;2022-11-30T09:07:17;5.90;99.90
4811;DHT22;2419;51.276;6.472;2022-11-30T09:09:45;6.00;99.90
4811;DHT22;2419;51.276;6.472;2022-11-30T09:12:13;5.90;99.90
4811;DHT22;2419;51.276;6.472;2022-11-30T09:14:43;5.90;99.90
4811;DHT22;2419;51.276;6.472;2022-11-30T09:17:18;5.90;99.90
4811;DHT22;2419;51.276;6.472;2022-11-30T09:19:46;5.90;99.90
4811;DHT22;2419;51.276;6.472;2022-11-30T09:22:14;6.00;99.90
4811;DHT22;2419;51.276;6.472;2022-11-30T09:24:42;6.00;99.90
4811;DHT22;2419;51.276;6.472;2022-11-30T09:27:12;6.00;99.90
4811;DHT22;2419;51.276;6.472;2022-11-30T09:29:40;6.10;99.90
4811;DHT22;2419;51.276;6.472;2022-11-30T09:32:09;6.10;99.90
4811;DHT22;2419;51.276;6.472;2022-11-30T09:34:40;6.10;99.90
4811;DHT22;2419;51.276;6.472;2022-11-30T09:37:09;6.10;99.90
4811;DHT22;2419;51.276;6.472;2022-11-30T09:39:37;6.20;99.90
4811;DHT22;2419;51.276;6.472;2022-11-30T09:42:37;6.20;99.90
4811;DHT22;2419;51.276;6.472;2022-11-30T09:45:13;6.20;99.90
4811;DHT22;2419;51.276;6.472;2022-11-30T09:48:00;6.20;99.90
4811;DHT22;2419;51.276;6.472;2022-11-30T09:50:33;6.30;99.90
4811;DHT22;2419;51.276;6.472;2022-11-30T09:53:06;6.30;99.90
4811;DHT22;2419;51.276;6.472;2022-11-30T09:55:39;6.30;99.90
4811;DHT22;2419;51.276;6.472;2022-11-30T09:58:12;6.30;99.90
4811;DHT22;2419;51.276;6.472;2022-11-30T10:00:44;6.30;99.90
4811;DHT22;2419;51.276;6.472;2022-11-30T10:03:22;6.40;99.90
4811;DHT22;2419;51.276;6.472;2022-11-30T10:05:55;6.30;99.90
4811;DHT22;2419;51.276;6.472;2022-11-30T10:08:42;6.40;99.90
4811;DHT22;2419;51.276;6.472;2022-11-30T10:11:30;6.40;99.90
4811;DHT22;2419;51.276;6.472;2022-11-30T10:14:13;6.40;99.90
4811;DHT22;2419;51.276;6.472;2022-11-30T10:16:47;6.40;99.90
4811;DHT22;2419;51.276;6.472;2022-11-30T10:19:32;6.50;99.90
4811;DHT22;2419;51.276;6.472;2022-11-30T10:22:17;6.50;99.90
4811;DHT22;2419;51.276;6.472;2022-11-30T10:25:00;6.60;99.90
4811;DHT22;2419;51.276;6.472;2022-11-30T10:27:47;6.60;99.90
4811;DHT22;2419;51.276;6.472;2022-11-30T10:30:18;6.70;99.90
4811;DHT22;2419;51.276;6.472;2022-11-30T10:32:50;6.70;99.90
4811;DHT22;2419;51.276;6.472;2022-11-30T10:35:28;6.80;99.90
4811;DHT22;2419;51.276;6.472;2022-11-30T10:38:10;6.80;99.90
4811;DHT22;2419;51.276;6.472;2022-11-30T10:40:44;6.90;99.90
4811;DHT22;2419;51.276;6.472;2022-11-30T10:43:19;6.80;99.90
4811;DHT22;2419;51.276;6.472;2022-11-30T10:45:49;6.90;99.90
4811;DHT22;2419;51.276;6.472;2022-11-30T10:48:23;7.00;99.90
4811;DHT22;2419;51.276;6.472;2022-11-30T10:50:55;7.00;99.90
4811;DHT22;2419;51.276;6.472;2022-11-30T10:53:25;7.00;99.90
4811;DHT22;2419;51.276;6.472;2022-11-30T10:55:59;7.10;99.90
4811;DHT22;2419;51.276;6.472;2022-11-30T10:58:32;7.10;99.90
4811;DHT22;2419;51.276;6.472;2022-11-30T11:01:04;7.20;99.90
4811;DHT22;2419;51.276;6.472;2022-11-30T11:03:33;7.20;99.90
4811;DHT22;2419;51.276;6.472;2022-11-30T11:06:11;7.20;99.90
4811;DHT22;2419;51.276;6.472;2022-11-30T11:08:41;7.20;99.90
4811;DHT22;2419;51.276;6.472;2022-11-30T11:11:26;7.20;99.90
4811;DHT22;2419;51.276;6.472;2022-11-30T11:14:11;7.20;99.90
4811;DHT22;2419;51.276;6.472;2022-11-30T11:16:51;7.20;99.90
4811;DHT22;2419;51.276;6.472;2022-11-30T11:19:25;7.20;99.90
4811;DHT22;2419;51.276;6.472;2022-11-30T11:22:00;7.20;99.90
4811;DHT22;2419;51.276;6.472;2022-11-30T11:24:30;7.20;99.90
4811;DHT22;2419;51.276;6.472;2022-11-30T11:26:58;7.20;99.90
4811;DHT22;2419;51.276;6.472;2022-11-30T11:29:30;7.20;99.90
4811;DHT22;2419;51.276;6.472;2022-11-30T11:32:11;7.20;99.90
4811;DHT22;2419;51.276;6.472;2022-11-30T11:34:44;7.20;99.90
4811;DHT22;2419;51.276;6.472;2022-11-30T11:37:21;7.20;99.90
4811;DHT22;2419;51.276;6.472;2022-11-30T11:39:58;7.20;99.90
4811;DHT22;2419;51.276;6.472;2022-11-30T11:42:29;7.30;99.90
4811;DHT22;2419;51.276;6.472;2022-11-30T11:44:59;7.30;99.90
4811;DHT22;2419;51.276;6.472;2022-11-30T11:47:31;7.20;99.90
4811;DHT22;2419;51.276;6.472;2022-11-30T11:50:05;7.30;99.90
4811;DHT22;2419;51.276;6.472;2022-11-30T11:52:36;7.30;99.90
4811;DHT22;2419;51.276;6.472;2022-11-30T11:55:07;7.40;99.90
4811;DHT22;2419;51.276;6.472;2022-11-30T11:57:40;7.40;99.90
4811;DHT22;2419;51.276;6.472;2022-11-30T12:00:15;7.40;99.90
4811;DHT22;2419;51.276;6.472;2022-11-30T12:02:52;7.40;99.90
4811;DHT22;2419;51.276;6.472;2022-11-30T12:05:26;7.50;99.90
4811;DHT22;2419;51.276;6.472;2022-11-30T12:08:08;7.50;99.90
4811;DHT22;2419;51.276;6.472;2022-11-30T12:10:41;7.50;99.90
4811;DHT22;2419;51.276;6.472;2022-11-30T12:13:19;7.50;99.90
4811;DHT22;2419;51.276;6.472;2022-11-30T12:15:56;7.50;99.90
4811;DHT22;2419;51.276;6.472;2022-11-30T12:18:31;7.50;99.90
4811;DHT22;2419;51.276;6.472;2022-11-30T12:21:08;7.60;99.90
4811;DHT22;2419;51.276;6.472;2022-11-30T12:23:56;7.60;99.90
4811;DHT22;2419;51.276;6.472;2022-11-30T12:26:33;7.60;99.90
4811;DHT22;2419;51.276;6.472;2022-11-30T12:29:19;7.50;99.90
4811;DHT22;2419;51.276;6.472;2022-11-30T12:32:00;7.50;99.90
4811;DHT22;2419;51.276;6.472;2022-11-30T12:34:41;7.60;99.90
4811;DHT22;2419;51.276;6.472;2022-11-30T12:37:20;7.60;99.90
4811;DHT22;2419;51.276;6.472;2022-11-30T12:39:59;7.60;99.90
4811;DHT22;2419;51.276;6.472;2022-11-30T12:42:38;7.60;99.90
4811;DHT22;2419;51.276;6.472;2022-11-30T12:45:14;7.60;99.90
4811;DHT22;2419;51.276;6.472;2022-11-30T12:47:50;7.60;99.90
4811;DHT22;2419;51.276;6.472;2022-11-30T12:50:32;7.60;99.90
4811;DHT22;2419;51.276;6.472;2022-11-30T12:53:07;7.60;99.90
4811;DHT22;2419;51.276;6.472;2022-11-30T12:56:16;7.50;99.90
4811;DHT22;2419;51.276;6.472;2022-11-30T12:58:56;7.60;99.90
4811;DHT22;2419;51.276;6.472;2022-11-30T13:01:41;7.60;99.90
4811;DHT22;2419;51.276;6.472;2022-11-30T13:04:17;7.60;99.90
4811;DHT22;2419;51.276;6.472;2022-11-30T13:06:47;7.60;99.90
4811;DHT22;2419;51.276;6.472;2022-11-30T13:09:24;7.60;99.90
4811;DHT22;2419;51.276;6.472;2022-11-30T13:11:56;7.60;99.90
4811;DHT22;2419;51.276;6.472;2022-11-30T13:14:27;7.60;99.90
4811;DHT22;2419;51.276;6.472;2022-11-30T13:17:00;7.50;99.90
4811;DHT22;2419;51.276;6.472;2022-11-30T13:19:41;7.50;99.90
4811;DHT22;2419;51.276;6.472;2022-11-30T13:22:18;7.50;99.90
4811;DHT22;2419;51.276;6.472;2022-11-30T13:24:55;7.50;99.90
4811;DHT22;2419;51.276;6.472;2022-11-30T13:27:30;7.50;99.90
4811;DHT22;2419;51.276;6.472;2022-11-30T13:30:15;7.50;99.90
4811;DHT22;2419;51.276;6.472;2022-11-30T13:32:46;7.50;99.90
4811;DHT22;2419;51.276;6.472;2022-11-30T13:35:39;7.50;99.90
4811;DHT22;2419;51.276;6.472;2022-11-30T13:38:16;7.50;99.90
4811;DHT22;2419;51.276;6.472;2022-11-30T13:41:06;7.60;99.90
4811;DHT22;2419;51.276;6.472;2022-11-30T13:43:41;7.50;99.90
4811;DHT22;2419;51.276;6.472;2022-11-30T13:46:13;7.50;99.90
4811;DHT22;2419;51.276;6.472;2022-11-30T13:48:43;7.50;99.90
4811;DHT22;2419;51.276;6.472;2022-11-30T13:51:12;7.40;99.90
4811;DHT22;2419;51.276;6.472;2022-11-30T13:53:40;7.50;99.90
4811;DHT22;2419;51.276;6.472;2022-11-30T13:56:32;7.40;99.90
4811;DHT22;2419;51.276;6.472;2022-11-30T13:59:33;7.40;99.90
4811;DHT22;2419;51.276;6.472;2022-11-30T14:05:39;7.50;99.90
4811;DHT22;2419;51.276;6.472;2022-11-30T14:08:37;7.40;99.90
4811;DHT22;2419;51.276;6.472;2022-11-30T14:11:37;7.50;99.90
4811;DHT22;2419;51.276;6.472;2022-11-30T14:14:44;7.40;99.90
4811;DHT22;2419;51.276;6.472;2022-11-30T14:17:22;7.50;99.90
4811;DHT22;2419;51.276;6.472;2022-11-30T14:19:52;7.50;99.90
4811;DHT22;2419;51.276;6.472;2022-11-30T14:22:22;7.50;99.90
4811;DHT22;2419;51.276;6.472;2022-11-30T14:24:52;7.40;99.90
4811;DHT22;2419;51.276;6.472;2022-11-30T14:27:23;7.40;99.90
4811;DHT22;2419;51.276;6.472;2022-11-30T14:29:55;7.40;99.90
4811;DHT22;2419;51.276;6.472;2022-11-30T14:32:33;7.40;99.90
4811;DHT22;2419;51.276;6.472;2022-11-30T14:35:06;7.40;99.90
4811;DHT22;2419;51.276;6.472;2022-11-30T14:37:42;7.30;99.90
4811;DHT22;2419;51.276;6.472;2022-11-30T14:40:16;7.30;99.90
4811;DHT22;2419;51.276;6.472;2022-11-30T14:42:50;7.30;99.90
4811;DHT22;2419;51.276;6.472;2022-11-30T14:45:22;7.30;99.90
4811;DHT22;2419;51.276;6.472;2022-11-30T14:47:52;7.20;99.90
4811;DHT22;2419;51.276;6.472;2022-11-30T14:50:23;7.30;99.90
4811;DHT22;2419;51.276;6.472;2022-11-30T14:53:00;7.20;99.90
4811;DHT22;2419;51.276;6.472;2022-11-30T14:55:35;7.20;99.90
4811;DHT22;2419;51.276;6.472;2022-11-30T14:58:15;7.20;99.90
4811;DHT22;2419;51.276;6.472;2022-11-30T15:00:46;7.20;99.90
4811;DHT22;2419;51.276;6.472;2022-11-30T15:03:18;7.10;99.90
4811;DHT22;2419;51.276;6.472;2022-11-30T15:05:50;7.10;99.90
4811;DHT22;2419;51.276;6.472;2022-11-30T15:08:19;7.10;99.90
4811;DHT22;2419;51.276;6.472;2022-11-30T15:10:47;7.10;99.90
4811;DHT22;2419;51.276;6.472;2022-11-30T15:13:18;7.10;99.90
4811;DHT22;2419;51.276;6.472;2022-11-30T15:15:52;7.10;99.90
4811;DHT22;2419;51.276;6.472;2022-11-30T15:18:22;7.10;99.90
4811;DHT22;2419;51.276;6.472;2022-11-30T15:20:53;7.10;99.90
4811;DHT22;2419;51.276;6.472;2022-11-30T15:23:22;7.00;99.90
4811;DHT22;2419;51.276;6.472;2022-11-30T15:25:52;7.10;99.90
4811;DHT22;2419;51.276;6.472;2022-11-30T15:28:25;7.10;99.90
4811;DHT22;2419;51.276;6.472;2022-11-30T15:30:56;7.10;99.90
4811;DHT22;2419;51.276;6.472;2022-11-30T15:33:30;7.10;99.90
4811;DHT22;2419;51.276;6.472;2022-11-30T15:36:01;7.00;99.90
4811;DHT22;2419;51.276;6.472;2022-11-30T15:38:49;7.10;99.90
4811;DHT22;2419;51.276;6.472;2022-11-30T15:41:20;7.00;99.90
4811;DHT22;2419;51.276;6.472;2022-11-30T15:43:50;7.00;99.90
4811;DHT22;2419;51.276;6.472;2022-11-30T15:46:31;7.00;99.90
4811;DHT22;2419;51.276;6.472;2022-11-30T15:49:16;7.00;99.90
4811;DHT22;2419;51.276;6.472;2022-11-30T15:51:45;7.00;99.90
4811;DHT22;2419;51.276;6.472;2022-11-30T15:54:40;7.00;99.90
4811;DHT22;2419;51.276;6.472;2022-11-30T15:57:09;6.90;99.90
4811;DHT22;2419;51.276;6.472;2022-11-30T15:59:37;6.90;99.90
4811;DHT22;2419;51.276;6.472;2022-11-30T16:02:24;6.90;99.90
4811;DHT22;2419;51.276;6.472;2022-11-30T16:07:48;6.90;99.90
4811;DHT22;2419;51.276;6.472;2022-11-30T16:10:19;6.90;99.90
4811;DHT22;2419;51.276;6.472;2022-11-30T16:12:49;6.90;99.90
4811;DHT22;2419;51.276;6.472;2022-11-30T16:15:19;7.00;99.90
4811;DHT22;2419;51.276;6.472;2022-11-30T16:17:51;6.90;99.90
4811;DHT22;2419;51.276;6.472;2022-11-30T16:20:21;6.80;99.90
4811;DHT22;2419;51.276;6.472;2022-11-30T16:23:04;6.90;99.90
4811;DHT22;2419;51.276;6.472;2022-11-30T16:25:32;6.90;99.90
4811;DHT22;2419;51.276;6.472;2022-11-30T16:28:01;6.80;99.90
4811;DHT22;2419;51.276;6.472;2022-11-30T16:30:48;6.80;99.90
4811;DHT22;2419;51.276;6.472;2022-11-30T16:33:41;6.90;99.90
4811;DHT22;2419;51.276;6.472;2022-11-30T16:36:38;6.90;99.90
4811;DHT22;2419;51.276;6.472;2022-11-30T16:39:44;6.90;99.90
4811;DHT22;2419;51.276;6.472;2022-11-30T16:42:44;6.90;99.90
4811;DHT22;2419;51.276;6.472;2022-11-30T16:45:15;6.90;99.90
4811;DHT22;2419;51.276;6.472;2022-11-30T16:47:44;6.90;99.90
4811;DHT22;2419;51.276;6.472;2022-11-30T16:50:14;6.90;99.90
4811;DHT22;2419;51.276;6.472;2022-11-30T16:52:43;6.90;99.90
4811;DHT22;2419;51.276;6.472;2022-11-30T16:55:12;6.90;99.90
4811;DHT22;2419;51.276;6.472;2022-11-30T16:57:40;6.90;99.90